SBI1064 UWKD-UUDD
Flight info
| Callsign | SBI1064 |
|---|---|
| Flight time | 1h 18m |
| Altitude | 34000 |
| Route | APTAR T787 URAGO |
| Aircraft | B738/M-SDE2E3FGHIRWXY/LB1 |
Departure
| Time | 2026-05-07 17:38 |
|---|---|
| Airport | Kazan International Airport (UWKD) |
Arrival
| Time | 2026-05-07 18:57 |
|---|---|
| Airport | Domodedovo International Airport (UUDD) |
| Time | Latitude | Longitude | Altitude | Speed | Heading |
|---|---|---|---|---|---|
| 2026-05-07 16:57 | 55.60784 | 49.29757 | 415 ft | 0 kts | 34° |
| 2026-05-07 17:17 | 55.60783 | 49.29755 | 415 ft | 2 kts | 34° |
| 2026-05-07 17:18 | 55.60769 | 49.29738 | 405 ft | 2 kts | 37° |
| 2026-05-07 17:18 | 55.60756 | 49.29720 | 411 ft | 2 kts | 40° |
| 2026-05-07 17:18 | 55.60744 | 49.29700 | 406 ft | 2 kts | 44° |
| 2026-05-07 17:18 | 55.60732 | 49.29679 | 407 ft | 2 kts | 49° |
| 2026-05-07 17:19 | 55.60722 | 49.29657 | 405 ft | 2 kts | 56° |
| 2026-05-07 17:19 | 55.60713 | 49.29631 | 405 ft | 2 kts | 66° |
| 2026-05-07 17:19 | 55.60707 | 49.29604 | 407 ft | 2 kts | 69° |
| 2026-05-07 17:19 | 55.60704 | 49.29591 | 407 ft | 0 kts | 43° |
| 2026-05-07 17:24 | 55.60706 | 49.29594 | 415 ft | 2 kts | 43° |
| 2026-05-07 17:25 | 55.60728 | 49.29617 | 407 ft | 4 kts | 19° |
| 2026-05-07 17:25 | 55.60757 | 49.29612 | 412 ft | 4 kts | 330° |
| 2026-05-07 17:25 | 55.60777 | 49.29573 | 415 ft | 4 kts | 307° |
| 2026-05-07 17:25 | 55.60794 | 49.29530 | 412 ft | 4 kts | 302° |
| 2026-05-07 17:26 | 55.60811 | 49.29482 | 412 ft | 5 kts | 303° |
| 2026-05-07 17:26 | 55.60807 | 49.29423 | 415 ft | 7 kts | 236° |
| 2026-05-07 17:26 | 55.60749 | 49.29350 | 415 ft | 11 kts | 213° |
| 2026-05-07 17:26 | 55.60686 | 49.29277 | 415 ft | 11 kts | 213° |
| 2026-05-07 17:27 | 55.60624 | 49.29200 | 415 ft | 11 kts | 216° |
| 2026-05-07 17:27 | 55.60579 | 49.29106 | 410 ft | 10 kts | 252° |
| 2026-05-07 17:27 | 55.60577 | 49.28983 | 415 ft | 10 kts | 273° |
| 2026-05-07 17:27 | 55.60581 | 49.28862 | 415 ft | 10 kts | 274° |
| 2026-05-07 17:28 | 55.60585 | 49.28745 | 412 ft | 9 kts | 274° |
| 2026-05-07 17:28 | 55.60593 | 49.28632 | 415 ft | 9 kts | 287° |
| 2026-05-07 17:28 | 55.60611 | 49.28565 | 411 ft | 9 kts | 303° |
| 2026-05-07 17:28 | 55.60646 | 49.28472 | 410 ft | 10 kts | 304° |
| 2026-05-07 17:29 | 55.60701 | 49.28327 | 413 ft | 12 kts | 303° |
| 2026-05-07 17:29 | 55.60749 | 49.28199 | 414 ft | 13 kts | 303° |
| 2026-05-07 17:29 | 55.60785 | 49.28114 | 414 ft | 13 kts | 306° |
| 2026-05-07 17:29 | 55.60848 | 49.27945 | 409 ft | 12 kts | 303° |
| 2026-05-07 17:30 | 55.60879 | 49.27863 | 412 ft | 12 kts | 306° |
| 2026-05-07 17:30 | 55.60927 | 49.27744 | 410 ft | 12 kts | 306° |
| 2026-05-07 17:30 | 55.60974 | 49.27629 | 413 ft | 11 kts | 306° |
| 2026-05-07 17:30 | 55.61019 | 49.27515 | 412 ft | 11 kts | 303° |
| 2026-05-07 17:31 | 55.61061 | 49.27402 | 413 ft | 11 kts | 303° |
| 2026-05-07 17:31 | 55.61101 | 49.27293 | 413 ft | 10 kts | 303° |
| 2026-05-07 17:31 | 55.61143 | 49.27191 | 412 ft | 10 kts | 306° |
| 2026-05-07 17:31 | 55.61184 | 49.27091 | 413 ft | 10 kts | 303° |
| 2026-05-07 17:32 | 55.61221 | 49.26990 | 414 ft | 10 kts | 303° |
| 2026-05-07 17:32 | 55.61259 | 49.26895 | 412 ft | 9 kts | 305° |
| 2026-05-07 17:32 | 55.61299 | 49.26793 | 409 ft | 11 kts | 304° |
| 2026-05-07 17:32 | 55.61347 | 49.26667 | 410 ft | 14 kts | 304° |
| 2026-05-07 17:33 | 55.61404 | 49.26517 | 410 ft | 16 kts | 304° |
| 2026-05-07 17:33 | 55.61468 | 49.26348 | 410 ft | 18 kts | 304° |
| 2026-05-07 17:33 | 55.61541 | 49.26158 | 408 ft | 19 kts | 304° |
| 2026-05-07 17:33 | 55.61615 | 49.25964 | 409 ft | 19 kts | 304° |
| 2026-05-07 17:34 | 55.61691 | 49.25783 | 412 ft | 18 kts | 304° |
| 2026-05-07 17:34 | 55.61761 | 49.25603 | 413 ft | 17 kts | 304° |
| 2026-05-07 17:34 | 55.61819 | 49.25451 | 410 ft | 11 kts | 304° |
| 2026-05-07 17:34 | 55.61854 | 49.25347 | 414 ft | 9 kts | 283° |
| 2026-05-07 17:35 | 55.61826 | 49.25257 | 411 ft | 9 kts | 216° |
| 2026-05-07 17:35 | 55.61824 | 49.25253 | 414 ft | 0 kts | 216° |
| 2026-05-07 17:36 | 55.61798 | 49.25224 | 410 ft | 12 kts | 212° |
| 2026-05-07 17:36 | 55.61734 | 49.25155 | 408 ft | 11 kts | 211° |
| 2026-05-07 17:36 | 55.61667 | 49.25186 | 410 ft | 11 kts | 132° |
| 2026-05-07 17:36 | 55.61656 | 49.25216 | 410 ft | 0 kts | 121° |
| 2026-05-07 17:37 | 55.61655 | 49.25216 | 410 ft | 1 kts | 121° |
| 2026-05-07 17:37 | 55.61538 | 49.25531 | 414 ft | 65 kts | 123° |
| 2026-05-07 17:38 | 55.61147 | 49.26542 | 411 ft | 134 kts | 124° |
| 2026-05-07 17:38 | 55.60521 | 49.28193 | 569 ft | 181 kts | 124° |
| 2026-05-07 17:38 | 55.59760 | 49.30086 | 1120 ft | 201 kts | 126° |
| 2026-05-07 17:38 | 55.58894 | 49.32064 | 1882 ft | 196 kts | 130° |
| 2026-05-07 17:39 | 55.58056 | 49.33799 | 2215 ft | 180 kts | 133° |
| 2026-05-07 17:39 | 55.57211 | 49.35248 | 2488 ft | 157 kts | 147° |
| 2026-05-07 17:39 | 55.56175 | 49.36234 | 2741 ft | 188 kts | 154° |
| 2026-05-07 17:39 | 55.55215 | 49.37920 | 3136 ft | 208 kts | 118° |
| 2026-05-07 17:40 | 55.54487 | 49.40248 | 3489 ft | 224 kts | 121° |
| 2026-05-07 17:40 | 55.53639 | 49.42581 | 3789 ft | 228 kts | 136° |
| 2026-05-07 17:40 | 55.52229 | 49.43750 | 4094 ft | 229 kts | 178° |
| 2026-05-07 17:40 | 55.50742 | 49.43004 | 4516 ft | 223 kts | 220° |
| 2026-05-07 17:41 | 55.49928 | 49.40764 | 4993 ft | 221 kts | 262° |
| 2026-05-07 17:41 | 55.50160 | 49.38129 | 5491 ft | 221 kts | 298° |
| 2026-05-07 17:41 | 55.50647 | 49.35546 | 5961 ft | 226 kts | 275° |
| 2026-05-07 17:41 | 55.50688 | 49.32782 | 6458 ft | 226 kts | 273° |
| 2026-05-07 17:42 | 55.50723 | 49.29998 | 6913 ft | 228 kts | 273° |
| 2026-05-07 17:42 | 55.50762 | 49.27233 | 7368 ft | 228 kts | 273° |
| 2026-05-07 17:42 | 55.50802 | 49.24428 | 7829 ft | 229 kts | 273° |
| 2026-05-07 17:42 | 55.50842 | 49.21589 | 7942 ft | 233 kts | 273° |
| 2026-05-07 17:43 | 55.50882 | 49.18737 | 7959 ft | 232 kts | 273° |
| 2026-05-07 17:43 | 55.50920 | 49.15936 | 8310 ft | 225 kts | 273° |
| 2026-05-07 17:43 | 55.50958 | 49.13134 | 8803 ft | 231 kts | 273° |
| 2026-05-07 17:43 | 55.50997 | 49.10273 | 9303 ft | 235 kts | 273° |
| 2026-05-07 17:44 | 55.51036 | 49.07363 | 9809 ft | 240 kts | 273° |
| 2026-05-07 17:44 | 55.51075 | 49.04391 | 10276 ft | 244 kts | 273° |
| 2026-05-07 17:44 | 55.51114 | 49.01416 | 10738 ft | 247 kts | 273° |
| 2026-05-07 17:44 | 55.51152 | 48.98368 | 11207 ft | 251 kts | 273° |
| 2026-05-07 17:45 | 55.51191 | 48.95253 | 11651 ft | 256 kts | 272° |
| 2026-05-07 17:45 | 55.51229 | 48.92070 | 12126 ft | 265 kts | 272° |
| 2026-05-07 17:45 | 55.51269 | 48.88754 | 12602 ft | 276 kts | 272° |
| 2026-05-07 17:45 | 55.51310 | 48.85269 | 12962 ft | 291 kts | 272° |
| 2026-05-07 17:46 | 55.51352 | 48.81600 | 13340 ft | 307 kts | 272° |
| 2026-05-07 17:46 | 55.51395 | 48.77742 | 13718 ft | 321 kts | 272° |
| 2026-05-07 17:46 | 55.51437 | 48.73759 | 14050 ft | 335 kts | 272° |
| 2026-05-07 17:46 | 55.51480 | 48.69558 | 14375 ft | 348 kts | 272° |
| 2026-05-07 17:47 | 55.51523 | 48.65211 | 14704 ft | 361 kts | 271° |
| 2026-05-07 17:47 | 55.51566 | 48.60693 | 15035 ft | 372 kts | 271° |
| 2026-05-07 17:47 | 55.51608 | 48.56053 | 15360 ft | 383 kts | 271° |
| 2026-05-07 17:47 | 55.51649 | 48.51356 | 15687 ft | 392 kts | 271° |
| 2026-05-07 17:48 | 55.51690 | 48.46533 | 15961 ft | 392 kts | 271° |
| 2026-05-07 17:48 | 55.51728 | 48.41714 | 15962 ft | 392 kts | 271° |
| 2026-05-07 17:48 | 55.51764 | 48.36894 | 15975 ft | 392 kts | 271° |
| 2026-05-07 17:48 | 55.51799 | 48.32084 | 15980 ft | 392 kts | 271° |
| 2026-05-07 17:49 | 55.51832 | 48.27264 | 15979 ft | 392 kts | 271° |
| 2026-05-07 17:49 | 55.51863 | 48.22513 | 15976 ft | 392 kts | 271° |
| 2026-05-07 17:49 | 55.51892 | 48.17710 | 16190 ft | 389 kts | 271° |
| 2026-05-07 17:49 | 55.51919 | 48.12942 | 16713 ft | 391 kts | 271° |
| 2026-05-07 17:50 | 55.51945 | 48.08106 | 17211 ft | 396 kts | 271° |
| 2026-05-07 17:50 | 55.51969 | 48.03227 | 17705 ft | 400 kts | 271° |
| 2026-05-07 17:50 | 55.51992 | 47.98289 | 18220 ft | 403 kts | 271° |
| 2026-05-07 17:50 | 55.52012 | 47.93326 | 18671 ft | 407 kts | 271° |
| 2026-05-07 17:51 | 55.52031 | 47.88309 | 19125 ft | 409 kts | 270° |
| 2026-05-07 17:51 | 55.52048 | 47.83271 | 19583 ft | 412 kts | 270° |
| 2026-05-07 17:51 | 55.52062 | 47.78189 | 20046 ft | 414 kts | 270° |
| 2026-05-07 17:51 | 55.52075 | 47.73098 | 20517 ft | 416 kts | 270° |
| 2026-05-07 17:52 | 55.52086 | 47.67969 | 21000 ft | 417 kts | 270° |
| 2026-05-07 17:52 | 55.52094 | 47.62903 | 21477 ft | 418 kts | 270° |
| 2026-05-07 17:52 | 55.52100 | 47.57755 | 21984 ft | 419 kts | 270° |
| 2026-05-07 17:52 | 55.52105 | 47.52612 | 22474 ft | 420 kts | 270° |
| 2026-05-07 17:53 | 55.52107 | 47.47459 | 22987 ft | 420 kts | 270° |
| 2026-05-07 17:53 | 55.52107 | 47.42289 | 23509 ft | 420 kts | 270° |
| 2026-05-07 17:53 | 55.52104 | 47.37118 | 23948 ft | 420 kts | 270° |
| 2026-05-07 17:53 | 55.52100 | 47.31962 | 24390 ft | 420 kts | 270° |
| 2026-05-07 17:54 | 55.52094 | 47.26879 | 24833 ft | 419 kts | 270° |
| 2026-05-07 17:54 | 55.52085 | 47.21734 | 25291 ft | 419 kts | 270° |
| 2026-05-07 17:54 | 55.52074 | 47.16601 | 25752 ft | 418 kts | 270° |
| 2026-05-07 17:54 | 55.52061 | 47.11474 | 26221 ft | 416 kts | 270° |
| 2026-05-07 17:55 | 55.52046 | 47.06364 | 26695 ft | 415 kts | 270° |
| 2026-05-07 17:55 | 55.52029 | 47.01270 | 27185 ft | 414 kts | 270° |
| 2026-05-07 17:55 | 55.52010 | 46.96190 | 27678 ft | 412 kts | 270° |
| 2026-05-07 17:55 | 55.51989 | 46.91143 | 28179 ft | 410 kts | 270° |
| 2026-05-07 17:56 | 55.51966 | 46.86187 | 28676 ft | 408 kts | 270° |
| 2026-05-07 17:56 | 55.51941 | 46.81100 | 29030 ft | 410 kts | 270° |
| 2026-05-07 17:56 | 55.51914 | 46.76126 | 29394 ft | 411 kts | 270° |
| 2026-05-07 17:56 | 55.51885 | 46.71069 | 29763 ft | 412 kts | 270° |
| 2026-05-07 17:57 | 55.51853 | 46.66002 | 30120 ft | 413 kts | 270° |
| 2026-05-07 17:57 | 55.51831 | 46.62578 | 30332 ft | 413 kts | 270° |
| 2026-05-07 17:57 | 55.51785 | 46.55848 | 30756 ft | 414 kts | 270° |
| 2026-05-07 17:57 | 55.51748 | 46.50772 | 31077 ft | 414 kts | 270° |
| 2026-05-07 17:58 | 55.51709 | 46.45670 | 31402 ft | 414 kts | 270° |
| 2026-05-07 17:58 | 55.51793 | 46.40603 | 31732 ft | 413 kts | 274° |
| 2026-05-07 17:58 | 55.51975 | 46.35535 | 32065 ft | 413 kts | 274° |
| 2026-05-07 17:58 | 55.52184 | 46.30545 | 32401 ft | 412 kts | 275° |
| 2026-05-07 17:59 | 55.52400 | 46.25502 | 32739 ft | 411 kts | 275° |
| 2026-05-07 17:59 | 55.52610 | 46.20475 | 33084 ft | 410 kts | 274° |
| 2026-05-07 17:59 | 55.52810 | 46.15453 | 33427 ft | 409 kts | 274° |
| 2026-05-07 17:59 | 55.53002 | 46.10446 | 33782 ft | 407 kts | 274° |
| 2026-05-07 18:00 | 55.53188 | 46.05450 | 33968 ft | 409 kts | 274° |
| 2026-05-07 18:00 | 55.53372 | 46.00389 | 33960 ft | 414 kts | 274° |
| 2026-05-07 18:00 | 55.53734 | 45.90162 | 33963 ft | 424 kts | 274° |
| 2026-05-07 18:01 | 55.54098 | 45.79634 | 33958 ft | 433 kts | 274° |
| 2026-05-07 18:01 | 55.54456 | 45.69004 | 33957 ft | 433 kts | 274° |
| 2026-05-07 18:02 | 55.54976 | 45.53052 | 33939 ft | 432 kts | 273° |
| 2026-05-07 18:03 | 55.55308 | 45.42521 | 33944 ft | 431 kts | 273° |
| 2026-05-07 18:03 | 55.55632 | 45.31952 | 33954 ft | 430 kts | 273° |
| 2026-05-07 18:04 | 55.55947 | 45.21411 | 33942 ft | 429 kts | 273° |
| 2026-05-07 18:04 | 55.56251 | 45.10893 | 33941 ft | 428 kts | 273° |
| 2026-05-07 18:05 | 55.56545 | 45.00455 | 33937 ft | 427 kts | 273° |
| 2026-05-07 18:05 | 55.56832 | 44.89967 | 33941 ft | 426 kts | 272° |
| 2026-05-07 18:06 | 55.57112 | 44.79484 | 33947 ft | 426 kts | 272° |
| 2026-05-07 18:06 | 55.57384 | 44.69096 | 33941 ft | 426 kts | 272° |
| 2026-05-07 18:07 | 55.57650 | 44.58636 | 33937 ft | 426 kts | 272° |
| 2026-05-07 18:07 | 55.57907 | 44.48169 | 33941 ft | 426 kts | 272° |
| 2026-05-07 18:08 | 55.58156 | 44.37686 | 33935 ft | 426 kts | 272° |
| 2026-05-07 18:08 | 55.58396 | 44.27197 | 33933 ft | 427 kts | 272° |
| 2026-05-07 18:09 | 55.58625 | 44.16769 | 33938 ft | 427 kts | 272° |
| 2026-05-07 18:09 | 55.58848 | 44.06256 | 33935 ft | 428 kts | 272° |
| 2026-05-07 18:10 | 55.59062 | 43.95716 | 33935 ft | 429 kts | 272° |
| 2026-05-07 18:10 | 55.59269 | 43.85159 | 33928 ft | 430 kts | 272° |
| 2026-05-07 18:11 | 55.59447 | 43.74654 | 33925 ft | 430 kts | 271° |
| 2026-05-07 18:11 | 55.59490 | 43.64081 | 33936 ft | 430 kts | 270° |
| 2026-05-07 18:12 | 55.59495 | 43.53491 | 33932 ft | 430 kts | 270° |
| 2026-05-07 18:12 | 55.59503 | 43.42910 | 33917 ft | 430 kts | 270° |
| 2026-05-07 18:13 | 55.59511 | 43.32341 | 33919 ft | 430 kts | 270° |
| 2026-05-07 18:13 | 55.59514 | 43.21768 | 33925 ft | 429 kts | 270° |
| 2026-05-07 18:14 | 55.59508 | 43.11191 | 33924 ft | 429 kts | 270° |
| 2026-05-07 18:14 | 55.59492 | 43.00688 | 33923 ft | 429 kts | 270° |
| 2026-05-07 18:15 | 55.59467 | 42.90147 | 33922 ft | 429 kts | 270° |
| 2026-05-07 18:15 | 55.59433 | 42.79599 | 33920 ft | 428 kts | 269° |
| 2026-05-07 18:16 | 55.59390 | 42.69048 | 33914 ft | 428 kts | 269° |
| 2026-05-07 18:16 | 55.59339 | 42.58579 | 33908 ft | 428 kts | 269° |
| 2026-05-07 18:17 | 55.59278 | 42.48047 | 33914 ft | 428 kts | 269° |
| 2026-05-07 18:17 | 55.59221 | 42.39297 | 33900 ft | 427 kts | 269° |
| 2026-05-07 18:18 | 55.59144 | 42.28795 | 33899 ft | 427 kts | 269° |
| 2026-05-07 18:18 | 55.59058 | 42.18299 | 33901 ft | 427 kts | 269° |
| 2026-05-07 18:19 | 55.58963 | 42.07800 | 33908 ft | 426 kts | 269° |
| 2026-05-07 18:19 | 55.58860 | 41.97325 | 33908 ft | 426 kts | 269° |
| 2026-05-07 18:20 | 55.58750 | 41.86924 | 33900 ft | 425 kts | 269° |
| 2026-05-07 18:20 | 55.58627 | 41.76465 | 33905 ft | 425 kts | 269° |
| 2026-05-07 18:21 | 55.58493 | 41.66012 | 33900 ft | 425 kts | 269° |
| 2026-05-07 18:21 | 55.58351 | 41.55556 | 33906 ft | 424 kts | 269° |
| 2026-05-07 18:22 | 55.58203 | 41.45196 | 33912 ft | 424 kts | 269° |
| 2026-05-07 18:22 | 55.58046 | 41.34763 | 33897 ft | 424 kts | 269° |
| 2026-05-07 18:23 | 55.57879 | 41.24326 | 33910 ft | 424 kts | 268° |
| 2026-05-07 18:23 | 55.57697 | 41.13984 | 33896 ft | 424 kts | 268° |
| 2026-05-07 18:24 | 55.57503 | 41.03575 | 33900 ft | 423 kts | 268° |
| 2026-05-07 18:24 | 55.57301 | 40.93117 | 33495 ft | 427 kts | 268° |
| 2026-05-07 18:24 | 55.57197 | 40.87877 | 33139 ft | 425 kts | 268° |
| 2026-05-07 18:25 | 55.57092 | 40.82722 | 32795 ft | 425 kts | 268° |
| 2026-05-07 18:25 | 55.56984 | 40.77494 | 32450 ft | 426 kts | 268° |
| 2026-05-07 18:25 | 55.56873 | 40.72242 | 32117 ft | 427 kts | 268° |
| 2026-05-07 18:25 | 55.56760 | 40.66978 | 31767 ft | 428 kts | 268° |
| 2026-05-07 18:26 | 55.56644 | 40.61708 | 31439 ft | 429 kts | 268° |
| 2026-05-07 18:26 | 55.56527 | 40.56428 | 31109 ft | 430 kts | 268° |
| 2026-05-07 18:26 | 55.56407 | 40.51154 | 30788 ft | 430 kts | 268° |
| 2026-05-07 18:26 | 55.56283 | 40.45867 | 30469 ft | 431 kts | 268° |
| 2026-05-07 18:27 | 55.56151 | 40.40641 | 30153 ft | 431 kts | 268° |
| 2026-05-07 18:27 | 55.56008 | 40.35341 | 29818 ft | 432 kts | 268° |
| 2026-05-07 18:27 | 55.55862 | 40.30041 | 29444 ft | 432 kts | 267° |
| 2026-05-07 18:27 | 55.55714 | 40.24735 | 29089 ft | 433 kts | 267° |
| 2026-05-07 18:28 | 55.55565 | 40.19410 | 28727 ft | 434 kts | 267° |
| 2026-05-07 18:28 | 55.55414 | 40.14079 | 28370 ft | 434 kts | 267° |
| 2026-05-07 18:28 | 55.55262 | 40.08721 | 27928 ft | 437 kts | 267° |
| 2026-05-07 18:28 | 55.55105 | 40.03337 | 27422 ft | 440 kts | 267° |
| 2026-05-07 18:29 | 55.55000 | 39.97911 | 26925 ft | 443 kts | 271° |
| 2026-05-07 18:29 | 55.55183 | 39.92526 | 26448 ft | 444 kts | 275° |
| 2026-05-07 18:29 | 55.55521 | 39.87112 | 25964 ft | 445 kts | 276° |
| 2026-05-07 18:29 | 55.55892 | 39.81676 | 25500 ft | 445 kts | 276° |
| 2026-05-07 18:30 | 55.56239 | 39.76274 | 25031 ft | 437 kts | 275° |
| 2026-05-07 18:30 | 55.56547 | 39.70977 | 24571 ft | 429 kts | 275° |
| 2026-05-07 18:30 | 55.56826 | 39.65765 | 24114 ft | 420 kts | 275° |
| 2026-05-07 18:30 | 55.57086 | 39.60723 | 23675 ft | 413 kts | 274° |
| 2026-05-07 18:31 | 55.57341 | 39.55707 | 23189 ft | 406 kts | 274° |
| 2026-05-07 18:31 | 55.57468 | 39.50765 | 22653 ft | 399 kts | 265° |
| 2026-05-07 18:31 | 55.57025 | 39.45959 | 22157 ft | 393 kts | 259° |
| 2026-05-07 18:31 | 55.56518 | 39.41257 | 21661 ft | 387 kts | 259° |
| 2026-05-07 18:32 | 55.56024 | 39.36609 | 21167 ft | 382 kts | 259° |
| 2026-05-07 18:32 | 55.55545 | 39.32005 | 20673 ft | 378 kts | 259° |
| 2026-05-07 18:32 | 55.55085 | 39.27514 | 20211 ft | 374 kts | 259° |
| 2026-05-07 18:32 | 55.54623 | 39.22959 | 19737 ft | 370 kts | 259° |
| 2026-05-07 18:33 | 55.54172 | 39.18511 | 19277 ft | 366 kts | 259° |
| 2026-05-07 18:33 | 55.53730 | 39.14166 | 18823 ft | 363 kts | 259° |
| 2026-05-07 18:33 | 55.53287 | 39.09809 | 18379 ft | 359 kts | 259° |
| 2026-05-07 18:33 | 55.52839 | 39.05427 | 17893 ft | 356 kts | 259° |
| 2026-05-07 18:34 | 55.52404 | 39.01191 | 17385 ft | 353 kts | 259° |
| 2026-05-07 18:34 | 55.51963 | 38.96930 | 16887 ft | 350 kts | 259° |
| 2026-05-07 18:34 | 55.51504 | 38.92714 | 16398 ft | 347 kts | 258° |
| 2026-05-07 18:34 | 55.51036 | 38.88544 | 15914 ft | 345 kts | 258° |
| 2026-05-07 18:35 | 55.50513 | 38.84494 | 15431 ft | 342 kts | 250° |
| 2026-05-07 18:35 | 55.49419 | 38.80804 | 14968 ft | 340 kts | 235° |
| 2026-05-07 18:35 | 55.47785 | 38.77783 | 14516 ft | 339 kts | 224° |
| 2026-05-07 18:35 | 55.46000 | 38.75073 | 14061 ft | 337 kts | 222° |
| 2026-05-07 18:36 | 55.44202 | 38.72435 | 13600 ft | 335 kts | 222° |
| 2026-05-07 18:36 | 55.42414 | 38.69817 | 13151 ft | 332 kts | 222° |
| 2026-05-07 18:36 | 55.40658 | 38.67231 | 12819 ft | 325 kts | 222° |
| 2026-05-07 18:36 | 55.38938 | 38.64681 | 12469 ft | 320 kts | 222° |
| 2026-05-07 18:37 | 55.37275 | 38.62205 | 12132 ft | 315 kts | 222° |
| 2026-05-07 18:37 | 55.35619 | 38.59734 | 11799 ft | 310 kts | 222° |
| 2026-05-07 18:37 | 55.33989 | 38.57299 | 11477 ft | 306 kts | 222° |
| 2026-05-07 18:37 | 55.32378 | 38.54893 | 11144 ft | 301 kts | 222° |
| 2026-05-07 18:38 | 55.30793 | 38.52527 | 10822 ft | 298 kts | 222° |
| 2026-05-07 18:38 | 55.29213 | 38.50170 | 10496 ft | 295 kts | 222° |
| 2026-05-07 18:38 | 55.27660 | 38.47857 | 10185 ft | 291 kts | 222° |
| 2026-05-07 18:38 | 55.26134 | 38.45588 | 9883 ft | 288 kts | 222° |
| 2026-05-07 18:39 | 55.24611 | 38.43328 | 9549 ft | 286 kts | 222° |
| 2026-05-07 18:39 | 55.22994 | 38.41263 | 9180 ft | 286 kts | 207° |
| 2026-05-07 18:39 | 55.21088 | 38.40369 | 8880 ft | 289 kts | 188° |
| 2026-05-07 18:39 | 55.19078 | 38.40679 | 8536 ft | 294 kts | 169° |
| 2026-05-07 18:40 | 55.17123 | 38.41695 | 8214 ft | 293 kts | 167° |
| 2026-05-07 18:40 | 55.15183 | 38.42771 | 7890 ft | 291 kts | 167° |
| 2026-05-07 18:40 | 55.13253 | 38.43829 | 7564 ft | 290 kts | 167° |
| 2026-05-07 18:40 | 55.11335 | 38.44860 | 7243 ft | 288 kts | 167° |
| 2026-05-07 18:41 | 55.09421 | 38.45881 | 6931 ft | 286 kts | 167° |
| 2026-05-07 18:41 | 55.07527 | 38.46633 | 6602 ft | 271 kts | 182° |
| 2026-05-07 18:41 | 55.05775 | 38.46156 | 6316 ft | 250 kts | 203° |
| 2026-05-07 18:41 | 55.04253 | 38.44871 | 5980 ft | 236 kts | 210° |
| 2026-05-07 18:42 | 55.02833 | 38.43551 | 5633 ft | 227 kts | 210° |
| 2026-05-07 18:42 | 55.01461 | 38.42279 | 5296 ft | 219 kts | 210° |
| 2026-05-07 18:42 | 55.00128 | 38.41051 | 5005 ft | 216 kts | 210° |
| 2026-05-07 18:42 | 54.98842 | 38.39663 | 4934 ft | 218 kts | 225° |
| 2026-05-07 18:43 | 54.97881 | 38.37632 | 4909 ft | 217 kts | 233° |
| 2026-05-07 18:43 | 54.96966 | 38.35585 | 4893 ft | 215 kts | 232° |
| 2026-05-07 18:43 | 54.96040 | 38.33538 | 4892 ft | 215 kts | 232° |
| 2026-05-07 18:43 | 54.95113 | 38.31497 | 4891 ft | 215 kts | 232° |
| 2026-05-07 18:44 | 54.94184 | 38.29445 | 4879 ft | 215 kts | 235° |
| 2026-05-07 18:44 | 54.93588 | 38.27099 | 4894 ft | 212 kts | 255° |
| 2026-05-07 18:44 | 54.93211 | 38.24617 | 4887 ft | 213 kts | 254° |
| 2026-05-07 18:44 | 54.92817 | 38.22129 | 4884 ft | 213 kts | 254° |
| 2026-05-07 18:45 | 54.92425 | 38.19679 | 4882 ft | 213 kts | 254° |
| 2026-05-07 18:45 | 54.92027 | 38.17198 | 4890 ft | 213 kts | 253° |
| 2026-05-07 18:45 | 54.91723 | 38.14686 | 4876 ft | 214 kts | 268° |
| 2026-05-07 18:45 | 54.91882 | 38.12098 | 4779 ft | 217 kts | 275° |
| 2026-05-07 18:46 | 54.92083 | 38.09483 | 4547 ft | 217 kts | 275° |
| 2026-05-07 18:46 | 54.92277 | 38.06904 | 4313 ft | 210 kts | 276° |
| 2026-05-07 18:46 | 54.92792 | 38.04597 | 4057 ft | 204 kts | 304° |
| 2026-05-07 18:46 | 54.93880 | 38.03086 | 3805 ft | 200 kts | 334° |
| 2026-05-07 18:47 | 54.95215 | 38.02643 | 3582 ft | 201 kts | 1° |
| 2026-05-07 18:47 | 54.96582 | 38.03155 | 3386 ft | 201 kts | 15° |
| 2026-05-07 18:47 | 54.97913 | 38.03924 | 3161 ft | 201 kts | 17° |
| 2026-05-07 18:47 | 54.99232 | 38.04717 | 3048 ft | 199 kts | 17° |
| 2026-05-07 18:48 | 55.00549 | 38.05507 | 3039 ft | 201 kts | 17° |
| 2026-05-07 18:48 | 55.01867 | 38.06294 | 3005 ft | 199 kts | 17° |
| 2026-05-07 18:48 | 55.03171 | 38.07070 | 3003 ft | 198 kts | 17° |
| 2026-05-07 18:48 | 55.04477 | 38.07844 | 3009 ft | 199 kts | 17° |
| 2026-05-07 18:49 | 55.05791 | 38.08621 | 3006 ft | 199 kts | 18° |
| 2026-05-07 18:49 | 55.07091 | 38.09388 | 3010 ft | 199 kts | 18° |
| 2026-05-07 18:49 | 55.08402 | 38.10162 | 3028 ft | 199 kts | 18° |
| 2026-05-07 18:49 | 55.09712 | 38.10935 | 3003 ft | 198 kts | 18° |
| 2026-05-07 18:50 | 55.11007 | 38.11700 | 3004 ft | 197 kts | 18° |
| 2026-05-07 18:50 | 55.12322 | 38.12364 | 2988 ft | 195 kts | 2° |
| 2026-05-07 18:50 | 55.13640 | 38.12044 | 3030 ft | 194 kts | 347° |
| 2026-05-07 18:50 | 55.14987 | 38.11596 | 3015 ft | 197 kts | 348° |
| 2026-05-07 18:51 | 55.16328 | 38.11173 | 3008 ft | 196 kts | 348° |
| 2026-05-07 18:51 | 55.17663 | 38.10751 | 3011 ft | 194 kts | 348° |
| 2026-05-07 18:51 | 55.18968 | 38.10338 | 3003 ft | 193 kts | 348° |
| 2026-05-07 18:51 | 55.20290 | 38.09918 | 3002 ft | 192 kts | 348° |
| 2026-05-07 18:52 | 55.21602 | 38.09501 | 3013 ft | 192 kts | 348° |
| 2026-05-07 18:52 | 55.22916 | 38.09084 | 3017 ft | 192 kts | 348° |
| 2026-05-07 18:52 | 55.24190 | 38.08414 | 3012 ft | 191 kts | 330° |
| 2026-05-07 18:52 | 55.25360 | 38.07258 | 3024 ft | 193 kts | 328° |
| 2026-05-07 18:53 | 55.26487 | 38.06028 | 3017 ft | 193 kts | 325° |
| 2026-05-07 18:53 | 55.27598 | 38.04720 | 3019 ft | 192 kts | 324° |
| 2026-05-07 18:53 | 55.28702 | 38.03390 | 3008 ft | 194 kts | 323° |
| 2026-05-07 18:53 | 55.29820 | 38.02038 | 2802 ft | 194 kts | 324° |
| 2026-05-07 18:54 | 55.30901 | 38.00732 | 2553 ft | 182 kts | 324° |
| 2026-05-07 18:54 | 55.31901 | 37.99525 | 2338 ft | 168 kts | 324° |
| 2026-05-07 18:54 | 55.32847 | 37.98381 | 2135 ft | 164 kts | 324° |
| 2026-05-07 18:54 | 55.33785 | 37.97248 | 1915 ft | 164 kts | 324° |
| 2026-05-07 18:55 | 55.34719 | 37.96120 | 1708 ft | 163 kts | 324° |
| 2026-05-07 18:55 | 55.35656 | 37.94989 | 1486 ft | 163 kts | 324° |
| 2026-05-07 18:55 | 55.36589 | 37.93863 | 1277 ft | 162 kts | 325° |
| 2026-05-07 18:55 | 55.37520 | 37.92739 | 1060 ft | 162 kts | 326° |
| 2026-05-07 18:56 | 55.38447 | 37.91621 | 840 ft | 161 kts | 326° |
| 2026-05-07 18:56 | 55.39372 | 37.90512 | 647 ft | 157 kts | 327° |
| 2026-05-07 18:56 | 55.40209 | 37.89525 | 567 ft | 134 kts | 327° |
| 2026-05-07 18:56 | 55.40859 | 37.88712 | 575 ft | 87 kts | 325° |
| 2026-05-07 18:57 | 55.41222 | 37.88267 | 580 ft | 42 kts | 325° |
| 2026-05-07 18:57 | 55.41373 | 37.88081 | 583 ft | 20 kts | 325° |
| 2026-05-07 18:57 | 55.41496 | 37.87988 | 585 ft | 19 kts | 350° |
| 2026-05-07 18:57 | 55.41623 | 37.87954 | 584 ft | 18 kts | 351° |
| 2026-05-07 18:58 | 55.41717 | 37.88020 | 582 ft | 17 kts | 97° |
| 2026-05-07 18:58 | 55.41633 | 37.88158 | 581 ft | 17 kts | 144° |
| 2026-05-07 18:58 | 55.41540 | 37.88272 | 580 ft | 16 kts | 145° |
| 2026-05-07 18:58 | 55.41451 | 37.88381 | 580 ft | 15 kts | 145° |
| 2026-05-07 18:59 | 55.41365 | 37.88485 | 579 ft | 15 kts | 145° |
| 2026-05-07 18:59 | 55.41282 | 37.88585 | 580 ft | 14 kts | 147° |
| 2026-05-07 18:59 | 55.41198 | 37.88665 | 577 ft | 13 kts | 148° |
| 2026-05-07 18:59 | 55.41126 | 37.88762 | 576 ft | 13 kts | 143° |
| 2026-05-07 19:00 | 55.41055 | 37.88854 | 576 ft | 13 kts | 149° |
| 2026-05-07 19:00 | 55.40980 | 37.88932 | 575 ft | 12 kts | 149° |
| 2026-05-07 19:00 | 55.40911 | 37.89018 | 574 ft | 12 kts | 145° |
| 2026-05-07 19:00 | 55.40838 | 37.89107 | 578 ft | 13 kts | 145° |
| 2026-05-07 19:01 | 55.40787 | 37.89232 | 572 ft | 13 kts | 107° |
| 2026-05-07 19:01 | 55.40792 | 37.89383 | 572 ft | 13 kts | 65° |
| 2026-05-07 19:01 | 55.40845 | 37.89503 | 574 ft | 12 kts | 28° |
| 2026-05-07 19:01 | 55.40922 | 37.89463 | 572 ft | 11 kts | 324° |
| 2026-05-07 19:02 | 55.40983 | 37.89392 | 578 ft | 10 kts | 327° |
| 2026-05-07 19:02 | 55.41039 | 37.89400 | 580 ft | 7 kts | 44° |
| 2026-05-07 19:02 | 55.41061 | 37.89463 | 577 ft | 0 kts | 56° |